Time;durP1;ratioP1;P1;durP2;ratioP2;P2;SDS_P1;SDS_P2;PMS_P1;PMS_P2;Temp;Humidity;BMP_temperature;BMP_pressure;BME280_temperature;BME280_humidity;BME280_pressure;Samples;Min_cycle;Max_cycle;Signal;HPM_P1;HPM_P2
2022/11/14 00:00:44;;;;;;;13.55;9.63;;;7.60;95.90;;;;;;5054973;28;20056;-62
2022/11/14 00:03:11;;;;;;;14.23;10.52;;;7.60;96.00;;;;;;5055888;28;20551;-62
2022/11/14 00:05:41;;;;;;;14.18;9.23;;;7.60;96.10;;;;;;5056281;28;20056;-62
2022/11/14 00:08:24;;;;;;;14.88;11.07;;;7.50;96.10;;;;;;5063780;28;20113;-62
2022/11/14 00:10:50;;;;;;;13.90;10.45;;;7.50;96.30;;;;;;5069072;28;20049;-62
2022/11/14 00:13:18;;;;;;;13.07;9.50;;;7.50;96.40;;;;;;5062076;28;20016;-62
2022/11/14 00:15:46;;;;;;;14.23;11.10;;;7.50;96.40;;;;;;5059792;28;20028;-62
2022/11/14 00:18:12;;;;;;;14.80;10.50;;;7.50;96.40;;;;;;5062610;28;20447;-63
2022/11/14 00:20:37;;;;;;;15.18;11.32;;;7.40;96.50;;;;;;5060592;28;20068;-62
2022/11/14 00:23:03;;;;;;;14.60;11.05;;;7.40;96.50;;;;;;5061035;28;20020;-62
2022/11/14 00:25:28;;;;;;;16.15;11.48;;;7.40;96.60;;;;;;5049319;28;20236;-62
2022/11/14 00:27:58;;;;;;;17.30;11.65;;;7.30;96.60;;;;;;5060935;28;20077;-62
2022/11/14 00:30:23;;;;;;;15.68;11.30;;;7.30;96.70;;;;;;5058463;28;20078;-62
2022/11/14 00:32:49;;;;;;;14.90;11.38;;;7.30;96.80;;;;;;5060155;28;20036;-62
2022/11/14 00:35:15;;;;;;;13.38;10.20;;;7.30;96.80;;;;;;5063135;28;20040;-62
2022/11/14 00:37:40;;;;;;;15.15;10.68;;;7.20;96.80;;;;;;5061016;28;20059;-62
2022/11/14 00:40:06;;;;;;;15.82;11.75;;;7.20;96.80;;;;;;5057920;28;20025;-62
2022/11/14 00:42:33;;;;;;;15.95;11.55;;;7.20;96.90;;;;;;5068213;28;20040;-62
2022/11/14 00:44:59;;;;;;;16.08;11.57;;;7.20;97.00;;;;;;5054979;28;20412;-62
2022/11/14 00:47:24;;;;;;;17.20;12.05;;;7.10;96.90;;;;;;5065632;28;20020;-62
2022/11/14 00:49:50;;;;;;;20.17;12.15;;;7.10;97.00;;;;;;5057720;28;20040;-63
2022/11/14 00:52:15;;;;;;;19.48;13.35;;;7.10;97.10;;;;;;5064079;28;20040;-62
2022/11/14 00:54:41;;;;;;;20.27;13.80;;;7.00;97.20;;;;;;5066230;28;20032;-62
2022/11/14 00:57:06;;;;;;;15.93;12.25;;;6.90;97.30;;;;;;5065590;28;20096;-62
2022/11/14 00:59:32;;;;;;;17.55;12.52;;;6.90;97.40;;;;;;5055126;28;20032;-62
2022/11/14 01:01:57;;;;;;;20.05;12.93;;;6.90;97.40;;;;;;5077753;28;20021;-62
2022/11/14 01:04:23;;;;;;;19.52;12.43;;;6.90;97.50;;;;;;5060868;28;20030;-62
2022/11/14 01:06:48;;;;;;;19.15;12.38;;;6.80;97.50;;;;;;5064789;28;20029;-62
2022/11/14 01:09:14;;;;;;;17.73;12.95;;;6.80;97.50;;;;;;5061044;28;20028;-62
2022/11/14 01:11:39;;;;;;;18.40;13.85;;;6.80;97.60;;;;;;5064584;28;20103;-62
2022/11/14 01:14:06;;;;;;;20.67;13.45;;;6.70;97.60;;;;;;5062230;28;20131;-62
2022/11/14 01:16:32;;;;;;;17.40;12.68;;;6.70;98.00;;;;;;5063269;28;20036;-62
2022/11/14 01:18:57;;;;;;;18.77;13.30;;;6.70;97.70;;;;;;5060544;28;20018;-62
2022/11/14 01:21:23;;;;;;;19.25;14.75;;;6.70;97.80;;;;;;5063195;28;20020;-62
2022/11/14 01:23:48;;;;;;;21.55;14.75;;;6.60;97.80;;;;;;5053412;28;20484;-62
2022/11/14 01:26:14;;;;;;;20.98;14.75;;;6.60;97.90;;;;;;5062209;28;20020;-62
2022/11/14 01:28:40;;;;;;;23.45;16.20;;;6.60;98.00;;;;;;5053572;28;20036;-62
2022/11/14 01:31:16;;;;;;;22.50;15.43;;;6.50;98.00;;;;;;5058423;28;20566;-62
2022/11/14 01:33:42;;;;;;;23.38;14.88;;;6.50;98.10;;;;;;5051526;28;20025;-62
2022/11/14 01:36:08;;;;;;;24.58;15.25;;;6.40;98.20;;;;;;5065318;28;20070;-62
2022/11/14 01:38:34;;;;;;;21.88;14.48;;;6.40;98.20;;;;;;5059421;28;20021;-62
2022/11/14 01:41:01;;;;;;;21.70;13.82;;;6.40;98.50;;;;;;5061949;28;20059;-62
2022/11/14 01:43:35;;;;;;;21.88;14.85;;;6.40;98.20;;;;;;5054563;28;20046;-61
2022/11/14 01:46:04;;;;;;;22.52;14.45;;;6.40;98.20;;;;;;5060098;28;20031;-62
2022/11/14 01:48:49;;;;;;;23.50;15.82;;;6.40;98.30;;;;;;5062741;28;20048;-62
2022/11/14 01:51:39;;;;;;;23.88;16.77;;;6.30;98.20;;;;;;5049867;28;20167;-62
2022/11/14 01:54:10;;;;;;;24.40;16.50;;;6.30;98.50;;;;;;5065061;28;20040;-62
2022/11/14 01:56:39;;;;;;;25.40;16.80;;;6.20;98.60;;;;;;5065182;28;20033;-62
2022/11/14 01:59:14;;;;;;;22.88;15.15;;;6.20;99.00;;;;;;5061888;28;20123;-62
2022/11/14 02:01:45;;;;;;;21.52;15.43;;;6.20;98.80;;;;;;5060760;28;20040;-62
2022/11/14 02:04:16;;;;;;;22.75;16.33;;;6.10;98.80;;;;;;5066824;28;20036;-62
2022/11/14 02:06:42;;;;;;;27.08;17.55;;;6.10;98.90;;;;;;5066853;28;20039;-62
2022/11/14 02:09:07;;;;;;;23.92;16.80;;;6.10;99.00;;;;;;5059969;28;20303;-62
2022/11/14 02:11:38;;;;;;;27.38;17.25;;;6.00;99.10;;;;;;5063897;28;20033;-62
2022/11/14 02:14:05;;;;;;;24.50;16.55;;;6.00;99.10;;;;;;5064072;28;20027;-62
2022/11/14 02:16:31;;;;;;;23.73;15.85;;;6.00;99.30;;;;;;5060804;28;20071;-62
2022/11/14 02:18:56;;;;;;;25.27;17.25;;;5.90;99.30;;;;;;5063869;28;20017;-62
2022/11/14 02:21:22;;;;;;;24.63;16.48;;;5.90;99.50;;;;;;5061686;28;20082;-62
2022/11/14 02:23:48;;;;;;;27.40;17.70;;;5.90;99.50;;;;;;5063930;28;20036;-62
2022/11/14 02:26:20;;;;;;;26.70;17.52;;;5.90;99.60;;;;;;5064151;28;20051;-62
2022/11/14 02:28:46;;;;;;;23.05;16.98;;;5.90;99.90;;;;;;5054625;28;20025;-62
2022/11/14 02:31:12;;;;;;;26.73;16.33;;;5.80;99.80;;;;;;5063213;28;20443;-62
2022/11/14 02:33:37;;;;;;;29.13;17.10;;;5.80;99.70;;;;;;5055841;28;20029;-62
2022/11/14 02:36:03;;;;;;;21.90;15.30;;;5.80;99.70;;;;;;5063264;28;20037;-62
2022/11/14 02:38:28;;;;;;;28.10;17.40;;;5.80;99.70;;;;;;5063499;28;20033;-62
2022/11/14 02:40:54;;;;;;;25.88;16.52;;;5.80;99.70;;;;;;5062081;28;20024;-62
2022/11/14 02:43:20;;;;;;;27.85;18.48;;;5.80;99.80;;;;;;5053574;28;20025;-61
2022/11/14 02:45:46;;;;;;;26.75;17.92;;;5.70;99.90;;;;;;5066781;28;20041;-62
2022/11/14 02:48:11;;;;;;;23.35;15.70;;;5.70;99.90;;;;;;5065752;28;20441;-62
2022/11/14 02:50:37;;;;;;;26.25;17.38;;;5.70;99.90;;;;;;5064656;28;20051;-62
2022/11/14 02:53:03;;;;;;;27.92;17.42;;;5.70;99.90;;;;;;5065517;28;20495;-62
2022/11/14 02:55:28;;;;;;;29.10;19.13;;;5.70;99.90;;;;;;5060519;28;20032;-63
2022/11/14 02:57:54;;;;;;;28.38;19.40;;;5.60;99.90;;;;;;5059310;28;20048;-62
2022/11/14 03:00:19;;;;;;;29.90;19.48;;;5.60;99.90;;;;;;5065429;28;20029;-62
2022/11/14 03:02:45;;;;;;;24.70;16.65;;;5.60;99.90;;;;;;5064375;28;20028;-62
2022/11/14 03:05:10;;;;;;;26.65;17.88;;;5.60;99.90;;;;;;5060971;28;20024;-62
2022/11/14 03:07:36;;;;;;;24.65;15.93;;;5.50;99.90;;;;;;5065050;28;20086;-63
2022/11/14 03:10:02;;;;;;;27.08;18.35;;;5.50;99.90;;;;;;5063748;28;20057;-62
2022/11/14 03:12:27;;;;;;;29.95;19.75;;;5.50;99.90;;;;;;5065241;28;20121;-62
2022/11/14 03:14:52;;;;;;;33.50;21.20;;;5.50;99.90;;;;;;5064961;28;20451;-62
2022/11/14 03:17:18;;;;;;;31.27;19.88;;;5.40;99.90;;;;;;5063569;28;20100;-62
2022/11/14 03:19:44;;;;;;;32.17;21.58;;;5.40;99.90;;;;;;5064498;28;20024;-61
2022/11/14 03:22:09;;;;;;;32.78;19.65;;;5.40;99.90;;;;;;5059658;28;20480;-61
2022/11/14 03:24:35;;;;;;;33.10;21.02;;;5.40;99.90;;;;;;5060504;28;20130;-61
2022/11/14 03:27:00;;;;;;;34.55;21.10;;;5.40;99.90;;;;;;5080813;28;20127;-61
2022/11/14 03:29:26;;;;;;;37.15;22.60;;;5.30;99.90;;;;;;5061215;28;20159;-61
2022/11/14 03:31:51;;;;;;;31.58;20.27;;;5.30;99.90;;;;;;5066364;28;20025;-61
2022/11/14 03:34:17;;;;;;;34.90;22.40;;;5.30;99.90;;;;;;5064953;28;20024;-61
2022/11/14 03:36:42;;;;;;;35.00;19.58;;;5.30;99.90;;;;;;5053842;28;20392;-61
2022/11/14 03:39:08;;;;;;;27.75;18.38;;;5.20;99.90;;;;;;5060794;28;20029;-61
2022/11/14 03:41:33;;;;;;;28.05;18.00;;;5.20;99.90;;;;;;5054590;28;20025;-61
2022/11/14 03:43:59;;;;;;;30.02;19.15;;;5.20;99.90;;;;;;5063897;28;20052;-60
2022/11/14 03:46:25;;;;;;;27.88;18.20;;;5.30;99.90;;;;;;5059188;28;20036;-61
2022/11/14 03:48:50;;;;;;;28.73;17.00;;;5.30;99.90;;;;;;5064352;28;20035;-61
2022/11/14 03:51:16;;;;;;;28.02;17.40;;;5.30;99.90;;;;;;5064451;28;20036;-60
2022/11/14 03:53:41;;;;;;;25.77;16.45;;;5.30;99.90;;;;;;5060236;28;20163;-61
2022/11/14 03:56:06;;;;;;;31.20;19.50;;;5.30;99.90;;;;;;5064678;28;20034;-61
2022/11/14 03:58:32;;;;;;;33.28;20.73;;;5.30;99.90;;;;;;5070852;28;20496;-61
2022/11/14 04:00:58;;;;;;;30.23;19.33;;;5.20;99.90;;;;;;5066845;28;20039;-61
2022/11/14 04:03:23;;;;;;;29.98;18.77;;;5.20;99.90;;;;;;5067774;28;20021;-61
2022/11/14 04:05:49;;;;;;;33.97;20.77;;;5.20;99.90;;;;;;5051017;28;20029;-60
2022/11/14 04:08:16;;;;;;;32.70;20.02;;;5.10;99.90;;;;;;5059891;28;20488;-61
2022/11/14 04:10:42;;;;;;;34.25;20.73;;;5.20;99.90;;;;;;5059361;28;20400;-61
2022/11/14 04:13:07;;;;;;;35.53;20.38;;;5.10;99.90;;;;;;5061573;28;20552;-61
2022/11/14 04:15:33;;;;;;;32.47;19.52;;;5.20;99.90;;;;;;5058964;28;20159;-61
2022/11/14 04:17:59;;;;;;;34.47;21.60;;;5.10;99.90;;;;;;5071981;28;20024;-61
2022/11/14 04:20:24;;;;;;;32.80;19.60;;;5.10;99.90;;;;;;5063700;28;20024;-60
2022/11/14 04:22:50;;;;;;;32.72;20.73;;;5.00;99.90;;;;;;5063610;28;20032;-61
2022/11/14 04:25:15;;;;;;;32.13;19.48;;;5.00;99.90;;;;;;5059722;28;20039;-60
2022/11/14 04:27:42;;;;;;;34.22;21.13;;;5.00;99.90;;;;;;5063607;28;20056;-60
2022/11/14 04:30:08;;;;;;;32.60;19.65;;;4.90;99.90;;;;;;5069403;28;20466;-61
2022/11/14 04:32:34;;;;;;;35.47;21.10;;;4.90;99.90;;;;;;5063569;28;20051;-61
2022/11/14 04:34:59;;;;;;;31.65;20.23;;;4.90;99.90;;;;;;5066703;28;20397;-61
2022/11/14 04:37:25;;;;;;;31.52;20.55;;;4.80;99.90;;;;;;5064173;28;20036;-60
2022/11/14 04:39:50;;;;;;;28.63;17.98;;;4.80;99.90;;;;;;5064120;28;20055;-62
2022/11/14 04:42:16;;;;;;;28.38;16.38;;;4.80;99.90;;;;;;5056627;28;20040;-61
2022/11/14 04:44:41;;;;;;;27.10;16.38;;;4.80;99.90;;;;;;5052454;28;20053;-61
2022/11/14 04:47:07;;;;;;;25.73;16.83;;;4.80;99.90;;;;;;5079583;28;20383;-61
2022/11/14 04:49:32;;;;;;;30.77;19.02;;;4.80;99.90;;;;;;5075077;28;20020;-61
2022/11/14 04:51:58;;;;;;;30.85;18.63;;;4.80;99.90;;;;;;5053901;28;20029;-61
2022/11/14 04:54:23;;;;;;;28.13;18.15;;;4.80;99.90;;;;;;5063251;28;20036;-61
2022/11/14 04:56:49;;;;;;;28.40;16.65;;;4.70;99.90;;;;;;5059763;28;20108;-62
2022/11/14 04:59:15;;;;;;;28.15;18.45;;;4.70;99.90;;;;;;5060540;28;20079;-62
2022/11/14 05:01:40;;;;;;;27.45;16.85;;;4.80;99.90;;;;;;5063962;28;20099;-61
2022/11/14 05:04:06;;;;;;;28.88;17.30;;;4.80;99.90;;;;;;5065819;28;20017;-61
2022/11/14 05:06:31;;;;;;;25.77;16.52;;;4.70;99.90;;;;;;5067703;28;20107;-62
2022/11/14 05:08:57;;;;;;;29.40;18.60;;;4.70;99.90;;;;;;5059194;28;20103;-61
2022/11/14 05:11:22;;;;;;;26.35;16.27;;;4.70;99.90;;;;;;5059765;28;20054;-61
2022/11/14 05:13:48;;;;;;;24.33;15.50;;;4.70;99.90;;;;;;5060379;28;20453;-62
2022/11/14 05:16:13;;;;;;;29.35;17.38;;;4.70;99.90;;;;;;5060447;28;20028;-61
2022/11/14 05:18:39;;;;;;;33.78;20.27;;;4.70;99.90;;;;;;5063335;28;20024;-61
2022/11/14 05:21:05;;;;;;;29.52;18.98;;;4.70;99.90;;;;;;5063986;28;20016;-62
2022/11/14 05:23:31;;;;;;;27.98;16.77;;;4.70;99.90;;;;;;5072785;28;20033;-62
2022/11/14 05:26:09;;;;;;;28.27;17.55;;;4.70;99.90;;;;;;5061273;28;20077;-61
2022/11/14 05:28:34;;;;;;;24.17;14.75;;;4.70;99.90;;;;;;5062902;28;20353;-62
2022/11/14 05:31:05;;;;;;;26.27;16.15;;;4.70;99.90;;;;;;5058336;28;20021;-61
2022/11/14 05:33:31;;;;;;;23.10;14.85;;;4.70;99.90;;;;;;5054776;28;20493;-61
2022/11/14 05:36:08;;;;;;;23.27;14.63;;;4.70;99.90;;;;;;5066982;28;20026;-61
2022/11/14 05:38:34;;;;;;;21.45;13.52;;;4.70;99.90;;;;;;5058801;28;20485;-61
2022/11/14 05:41:05;;;;;;;23.80;14.27;;;4.70;99.90;;;;;;5062426;28;20020;-61
2022/11/14 05:43:31;;;;;;;21.85;13.38;;;4.70;99.90;;;;;;5063957;28;20032;-61
2022/11/14 05:46:01;;;;;;;24.40;15.35;;;4.60;99.90;;;;;;5060626;28;20029;-61
2022/11/14 05:48:26;;;;;;;;;;;4.70;99.90;;;;;;5061320;28;20431;-61
2022/11/14 05:51:00;;;;;;;24.73;15.13;;;4.60;99.90;;;;;;5087272;28;19908;-61
2022/11/14 05:53:27;;;;;;;24.67;15.88;;;4.50;99.90;;;;;;5062980;28;20547;-61
2022/11/14 05:55:53;;;;;;;22.80;14.50;;;4.50;99.90;;;;;;5061009;28;20025;-61
2022/11/14 05:58:18;;;;;;;26.08;16.15;;;4.50;99.90;;;;;;5064716;28;20374;-61
2022/11/14 06:00:45;;;;;;;26.73;17.02;;;4.50;99.90;;;;;;5073789;28;20090;-61
2022/11/14 06:03:10;;;;;;;29.48;17.55;;;4.50;99.90;;;;;;5075544;28;20013;-61
2022/11/14 06:05:36;;;;;;;24.40;15.38;;;4.40;99.90;;;;;;5072682;28;20031;-61
2022/11/14 06:08:02;;;;;;;26.42;15.70;;;4.50;99.90;;;;;;5075795;28;20492;-61
2022/11/14 06:10:28;;;;;;;26.08;15.38;;;4.40;99.90;;;;;;5058545;28;20025;-61
2022/11/14 06:12:54;;;;;;;22.42;14.73;;;4.40;99.90;;;;;;5066234;28;20016;-61
2022/11/14 06:15:20;;;;;;;31.00;17.02;;;4.40;99.90;;;;;;5074799;28;20039;-61
2022/11/14 06:17:45;;;;;;;24.45;15.52;;;4.40;99.90;;;;;;5065822;28;20025;-61
2022/11/14 06:20:14;;;;;;;23.38;15.07;;;4.30;99.90;;;;;;5073163;28;20020;-61
2022/11/14 06:22:40;;;;;;;24.70;14.25;;;4.30;99.90;;;;;;5075621;28;20054;-61
2022/11/14 06:25:06;;;;;;;25.05;15.38;;;4.30;99.90;;;;;;5071405;28;20541;-61
2022/11/14 06:27:32;;;;;;;26.98;15.57;;;4.30;99.90;;;;;;5075547;28;20032;-61
2022/11/14 06:29:57;;;;;;;23.35;14.95;;;4.30;99.90;;;;;;5074967;28;20028;-61
2022/11/14 06:32:23;;;;;;;23.27;14.52;;;4.30;99.90;;;;;;5075258;28;20036;-61
2022/11/14 06:34:48;;;;;;;26.10;14.77;;;4.30;99.90;;;;;;5070972;28;20020;-61
2022/11/14 06:37:14;;;;;;;25.23;14.60;;;4.30;99.90;;;;;;5075131;28;20365;-61
2022/11/14 06:39:39;;;;;;;24.75;14.40;;;4.30;99.90;;;;;;5058258;28;20102;-61
2022/11/14 06:42:05;;;;;;;23.67;14.20;;;4.20;99.90;;;;;;5055004;28;20037;-61
2022/11/14 06:44:30;;;;;;;22.95;14.05;;;4.20;99.90;;;;;;5067045;28;20064;-61
2022/11/14 06:46:56;;;;;;;23.73;14.90;;;4.20;99.90;;;;;;5074385;28;20032;-61
2022/11/14 06:49:23;;;;;;;23.92;15.07;;;4.20;99.90;;;;;;5071236;28;20119;-61
2022/11/14 06:51:49;;;;;;;23.45;14.65;;;4.20;99.90;;;;;;5072451;28;20044;-61
2022/11/14 06:54:15;;;;;;;20.95;13.35;;;4.20;99.90;;;;;;5074371;28;20085;-61
2022/11/14 06:56:41;;;;;;;21.88;13.38;;;4.20;99.90;;;;;;5074976;28;20464;-61
2022/11/14 06:59:06;;;;;;;26.98;16.08;;;4.20;99.90;;;;;;5085561;28;20017;-61
2022/11/14 07:01:32;;;;;;;24.05;14.88;;;4.10;99.90;;;;;;5071497;28;20043;-61
2022/11/14 07:03:59;;;;;;;21.70;14.27;;;4.10;99.90;;;;;;5075304;28;20024;-61
2022/11/14 07:06:26;;;;;;;22.83;13.77;;;4.10;99.90;;;;;;5084817;28;20081;-61
2022/11/14 07:08:55;;;;;;;26.30;15.88;;;4.10;99.90;;;;;;5073981;28;20519;-61
2022/11/14 07:11:28;;;;;;;22.15;14.07;;;4.10;99.90;;;;;;5073214;28;20029;-61
2022/11/14 07:13:56;;;;;;;20.83;14.00;;;4.10;99.90;;;;;;5074446;28;20104;-61
2022/11/14 07:16:30;;;;;;;25.38;15.23;;;4.10;99.90;;;;;;5072541;28;20369;-61
2022/11/14 07:18:56;;;;;;;22.75;14.50;;;4.10;99.90;;;;;;5061643;28;20024;-61
2022/11/14 07:21:22;;;;;;;23.45;14.70;;;4.10;99.90;;;;;;5069279;28;20017;-61
2022/11/14 07:23:48;;;;;;;25.63;14.55;;;4.10;99.90;;;;;;5074470;28;20040;-61
2022/11/14 07:26:13;;;;;;;26.83;16.25;;;4.10;99.90;;;;;;5072613;28;20412;-61
2022/11/14 07:28:41;;;;;;;23.83;15.52;;;4.10;99.90;;;;;;5073027;28;20044;-61
2022/11/14 07:31:11;;;;;;;24.73;15.18;;;4.10;99.90;;;;;;5071420;28;20028;-61
2022/11/14 07:33:37;;;;;;;22.85;13.40;;;4.10;99.90;;;;;;5072684;28;20040;-61
2022/11/14 07:36:03;;;;;;;21.45;12.73;;;4.20;99.90;;;;;;5072502;28;20068;-61
2022/11/14 07:38:33;;;;;;;21.67;13.32;;;4.20;99.90;;;;;;5072736;28;20020;-61
2022/11/14 07:41:07;;;;;;;22.95;14.05;;;4.30;99.90;;;;;;5069906;28;20101;-61
2022/11/14 07:43:33;;;;;;;28.50;15.95;;;4.20;99.90;;;;;;5072411;28;20028;-60
2022/11/14 07:46:00;;;;;;;23.23;15.23;;;4.30;99.90;;;;;;5071613;28;20031;-61
2022/11/14 07:48:29;;;;;;;26.35;15.43;;;4.30;99.90;;;;;;5073559;28;20423;-61
2022/11/14 07:51:02;;;;;;;22.42;14.18;;;4.30;99.90;;;;;;5071334;28;20035;-61
2022/11/14 07:53:28;;;;;;;20.50;13.23;;;4.30;99.90;;;;;;5065219;28;20031;-61
2022/11/14 07:55:55;;;;;;;19.60;12.50;;;4.30;99.90;;;;;;5062299;28;20024;-61
2022/11/14 07:58:20;;;;;;;21.75;14.10;;;4.40;99.90;;;;;;5073210;28;20020;-61
2022/11/14 08:00:46;;;;;;;22.83;13.75;;;4.40;99.90;;;;;;5061027;28;20028;-61
2022/11/14 08:03:12;;;;;;;19.23;12.52;;;4.40;99.90;;;;;;5071884;28;20154;-61
2022/11/14 08:05:37;;;;;;;22.58;14.52;;;4.50;99.90;;;;;;5072901;28;20047;-61
2022/11/14 08:08:03;;;;;;;23.90;14.93;;;4.50;99.90;;;;;;5069241;28;20028;-61
2022/11/14 08:10:29;;;;;;;25.02;15.23;;;4.50;99.90;;;;;;5071792;28;20012;-61
2022/11/14 08:12:59;;;;;;;22.48;14.15;;;4.60;99.90;;;;;;5071705;28;20110;-61
2022/11/14 08:15:25;;;;;;;23.58;14.45;;;4.60;99.90;;;;;;5071688;28;20098;-61
2022/11/14 08:17:50;;;;;;;24.25;16.20;;;4.60;99.90;;;;;;5071684;28;20496;-61
2022/11/14 08:20:16;;;;;;;24.40;14.85;;;4.70;99.90;;;;;;5072148;28;20013;-61
2022/11/14 08:22:41;;;;;;;24.52;14.77;;;4.70;99.90;;;;;;5066370;28;20452;-61
2022/11/14 08:25:07;;;;;;;20.13;13.32;;;4.80;99.90;;;;;;5062030;28;20528;-61
2022/11/14 08:27:33;;;;;;;22.02;13.65;;;4.80;99.90;;;;;;5057705;28;20040;-61
2022/11/14 08:29:58;;;;;;;21.17;13.88;;;4.90;99.90;;;;;;5062387;28;20016;-61
2022/11/14 08:32:24;;;;;;;18.10;11.40;;;5.00;99.90;;;;;;5065653;28;20033;-61
2022/11/14 08:34:56;;;;;;;21.52;13.05;;;5.00;99.90;;;;;;5058087;28;20021;-61
2022/11/14 08:37:21;;;;;;;19.48;12.02;;;5.10;99.90;;;;;;5064206;28;20020;-61
2022/11/14 08:39:47;;;;;;;20.15;13.60;;;5.30;99.90;;;;;;5072467;28;20028;-61
2022/11/14 08:42:12;;;;;;;19.92;13.60;;;5.40;99.90;;;;;;5059503;28;20173;-61
2022/11/14 08:44:38;;;;;;;20.48;13.25;;;5.60;99.90;;;;;;5066019;28;20052;-61
2022/11/14 08:47:03;;;;;;;15.75;11.32;;;5.70;99.90;;;;;;5070169;28;20431;-61
2022/11/14 08:49:29;;;;;;;14.85;10.15;;;5.90;99.90;;;;;;5071288;28;20085;-61
2022/11/14 08:51:55;;;;;;;16.65;11.98;;;6.00;99.90;;;;;;5071205;28;20544;-61
2022/11/14 08:54:20;;;;;;;16.10;11.13;;;6.10;99.90;;;;;;5071077;28;20099;-61
2022/11/14 08:56:46;;;;;;;19.63;13.23;;;6.30;99.90;;;;;;5070223;28;20100;-61
2022/11/14 08:59:11;;;;;;;16.70;11.32;;;6.40;99.90;;;;;;5070982;28;20483;-61
2022/11/14 09:01:37;;;;;;;19.77;11.88;;;6.50;99.90;;;;;;5071013;28;20028;-61
2022/11/14 09:04:02;;;;;;;17.67;11.82;;;6.60;99.90;;;;;;5072630;28;20055;-61
2022/11/14 09:06:28;;;;;;;19.60;12.20;;;6.70;99.90;;;;;;5071065;28;20017;-61
2022/11/14 09:08:53;;;;;;;18.65;13.38;;;6.80;99.90;;;;;;5070774;28;20028;-61
2022/11/14 09:11:19;;;;;;;19.23;12.95;;;6.90;99.90;;;;;;5070890;28;20081;-61
2022/11/14 09:13:45;;;;;;;21.38;13.57;;;6.90;99.90;;;;;;5070836;28;21005;-61
2022/11/14 09:16:10;;;;;;;19.48;13.27;;;7.00;99.90;;;;;;5068127;28;20491;-61
2022/11/14 09:18:36;;;;;;;20.13;13.85;;;7.10;99.90;;;;;;5071011;28;20029;-61
2022/11/14 09:21:04;;;;;;;19.55;12.57;;;7.20;99.90;;;;;;5057440;28;20025;-61
2022/11/14 09:23:29;;;;;;;19.17;13.57;;;7.30;99.90;;;;;;5070611;28;20024;-61
2022/11/14 09:25:55;;;;;;;19.98;13.93;;;7.30;99.90;;;;;;5069982;28;20044;-61
2022/11/14 09:28:22;;;;;;;20.25;13.77;;;7.40;99.90;;;;;;5069465;28;20024;-62
2022/11/14 09:30:48;;;;;;;20.75;13.63;;;7.50;99.90;;;;;;5070678;28;20012;-62
2022/11/14 09:33:13;;;;;;;20.95;13.77;;;7.50;99.90;;;;;;5069401;28;20484;-61
2022/11/14 09:35:39;;;;;;;17.70;13.07;;;7.50;99.90;;;;;;5070833;28;20084;-62
2022/11/14 09:38:07;;;;;;;21.65;13.27;;;7.50;99.90;;;;;;5070773;28;20021;-61
2022/11/14 09:41:07;;;;;;;18.23;12.15;;;7.60;99.90;;;;;;5069573;28;20016;-61
2022/11/14 09:44:10;;;;;;;20.73;13.82;;;7.60;99.90;;;;;;5044706;28;20032;-62
2022/11/14 09:46:45;;;;;;;20.60;13.70;;;7.70;99.80;;;;;;5069313;28;20031;-61
2022/11/14 09:49:39;;;;;;;19.95;13.68;;;7.90;99.60;;;;;;5054385;28;20049;-61
2022/11/14 09:52:18;;;;;;;20.23;13.40;;;8.20;99.00;;;;;;5066797;28;20510;-61
2022/11/14 09:54:54;;;;;;;18.45;12.85;;;8.50;98.50;;;;;;5070925;28;20103;-61
2022/11/14 09:57:25;;;;;;;17.73;13.13;;;8.60;98.10;;;;;;5071682;28;20021;-61
2022/11/14 09:59:50;;;;;;;18.33;12.25;;;8.80;97.30;;;;;;5071841;28;20035;-61
2022/11/14 10:02:53;;;;;;;18.02;13.20;;;8.80;97.00;;;;;;5071796;28;20021;-61
2022/11/14 10:05:31;;;;;;;19.55;13.40;;;9.00;96.90;;;;;;5083094;28;20039;-61
2022/11/14 10:08:07;;;;;;;20.30;12.52;;;9.40;96.60;;;;;;5071962;28;20582;-61
2022/11/14 10:10:41;;;;;;;20.38;12.85;;;10.00;95.30;;;;;;5067451;28;20028;-62
2022/11/14 10:13:41;;;;;;;18.50;12.50;;;10.20;94.90;;;;;;5051792;28;20032;-62
2022/11/14 10:16:07;;;;;;;;;;;10.30;94.00;;;;;;5062816;28;20503;-61
2022/11/14 10:19:16;;;;;;;17.58;12.02;;;10.50;94.00;;;;;;5070627;28;20003;-62
2022/11/14 10:21:53;;;;;;;16.63;12.68;;;11.00;93.70;;;;;;5073536;28;20017;-62
2022/11/14 10:24:56;;;;;;;23.38;13.60;;;11.50;92.30;;;;;;5073954;28;20082;-62
2022/11/14 10:27:37;;;;;;;17.27;13.65;;;11.60;90.70;;;;;;5071638;28;20512;-62
2022/11/14 10:30:09;;;;;;;19.00;12.90;;;11.60;90.50;;;;;;5073833;28;20017;-62
2022/11/14 10:32:53;;;;;;;19.20;12.73;;;11.70;90.10;;;;;;5073824;28;20024;-62
2022/11/14 10:35:24;;;;;;;18.92;12.85;;;11.80;90.00;;;;;;5071932;28;20678;-62
2022/11/14 10:38:17;;;;;;;17.77;12.32;;;11.80;89.80;;;;;;5089357;28;20020;-62
2022/11/14 10:40:53;;;;;;;19.58;13.18;;;12.00;89.60;;;;;;5070552;28;20484;-63
2022/11/14 10:43:42;;;;;;;18.02;13.52;;;12.30;89.20;;;;;;5073659;28;21297;-61
2022/11/14 10:46:16;;;;;;;18.17;12.98;;;12.60;87.60;;;;;;5072333;28;20120;-62
2022/11/14 10:48:45;;;;;;;16.10;12.38;;;12.90;85.10;;;;;;5073394;28;20040;-62
2022/11/14 10:51:28;;;;;;;19.02;14.57;;;13.30;84.50;;;;;;5073553;28;20025;-62
2022/11/14 10:54:04;;;;;;;17.40;13.80;;;13.50;81.80;;;;;;5073575;28;20024;-63
2022/11/14 10:56:30;;;;;;;17.38;13.32;;;13.20;83.50;;;;;;5071650;28;20099;-62
2022/11/14 10:58:55;;;;;;;19.70;14.35;;;13.10;83.90;;;;;;5069877;28;20116;-61
2022/11/14 11:01:35;;;;;;;19.75;14.25;;;13.20;84.10;;;;;;5071565;28;20688;-61
2022/11/14 11:04:12;;;;;;;21.00;15.25;;;13.30;83.70;;;;;;5073618;28;20028;-62
2022/11/14 11:06:38;;;;;;;19.75;14.75;;;13.70;82.00;;;;;;5072792;28;20488;-61
2022/11/14 11:12:00;;;;;;;20.95;15.40;;;14.20;79.80;;;;;;5073889;28;20032;-62
2022/11/14 11:14:26;;;;;;;23.40;15.73;;;14.30;78.80;;;;;;5070540;28;20048;-61
2022/11/14 11:17:10;;;;;;;23.98;17.92;;;14.60;78.00;;;;;;5063559;28;20096;-61
2022/11/14 11:19:36;;;;;;;22.08;17.70;;;14.60;77.30;;;;;;5072706;28;20052;-61
2022/11/14 11:22:01;;;;;;;22.17;16.38;;;14.30;77.90;;;;;;5071182;28;20040;-62
2022/11/14 11:24:35;;;;;;;26.30;19.13;;;14.10;80.10;;;;;;5060380;28;20108;-62
2022/11/14 11:27:24;;;;;;;24.60;19.30;;;13.80;80.50;;;;;;5063990;28;20477;-62
2022/11/14 11:30:06;;;;;;;27.08;21.25;;;13.50;81.00;;;;;;5069967;28;20028;-60
2022/11/14 11:32:32;;;;;;;29.92;21.63;;;12.80;83.20;;;;;;5069223;28;20047;-62
2022/11/14 11:35:01;;;;;;;29.40;23.17;;;12.20;85.50;;;;;;5071199;28;20559;-62
2022/11/14 11:37:44;;;;;;;31.92;23.90;;;11.90;87.90;;;;;;5072182;28;20040;-62
2022/11/14 11:40:20;;;;;;;33.25;25.70;;;11.40;89.50;;;;;;5081446;28;20024;-61
2022/11/14 11:42:54;;;;;;;37.58;27.17;;;11.00;90.60;;;;;;5067846;28;20028;-62
2022/11/14 11:45:21;;;;;;;34.60;25.05;;;10.80;91.10;;;;;;5061225;28;20424;-61
2022/11/14 11:47:54;;;;;;;33.88;25.65;;;10.50;91.60;;;;;;5070974;28;20484;-61
2022/11/14 11:50:23;;;;;;;35.03;23.98;;;10.20;92.50;;;;;;5067222;28;20025;-62
2022/11/14 11:53:01;;;;;;;32.13;23.45;;;9.80;93.30;;;;;;5071247;28;20070;-61
2022/11/14 11:55:31;;;;;;;34.50;24.75;;;9.50;94.20;;;;;;5073157;28;20086;-61
2022/11/14 11:58:10;;;;;;;35.13;24.42;;;9.40;94.60;;;;;;5071090;28;20522;-61
2022/11/14 12:00:37;;;;;;;;;;;9.40;95.00;;;;;;5071183;28;20056;-61
2022/11/14 12:03:08;;;;;;;36.45;25.65;;;9.20;95.40;;;;;;5071287;28;19995;-62
2022/11/14 12:05:43;;;;;;;39.90;26.92;;;9.10;96.00;;;;;;5067632;28;20040;-61
2022/11/14 12:08:15;;;;;;;34.55;24.65;;;9.00;96.70;;;;;;5073061;28;20036;-61
2022/11/14 12:10:44;;;;;;;39.40;26.15;;;8.90;97.40;;;;;;5071331;28;20036;-61
2022/11/14 12:13:31;;;;;;;36.33;24.67;;;8.80;97.70;;;;;;5071331;28;20114;-61
2022/11/14 12:16:13;;;;;;;40.00;25.23;;;8.80;98.20;;;;;;5084299;28;20020;-61
2022/11/14 12:19:05;;;;;;;35.67;24.70;;;8.80;98.10;;;;;;5071788;28;20465;-61
2022/11/14 12:22:02;;;;;;;37.42;25.70;;;8.80;98.10;;;;;;5070243;28;20074;-61
2022/11/14 12:24:58;;;;;;;35.25;25.50;;;8.70;98.20;;;;;;5072166;28;20518;-61
2022/11/14 12:27:52;;;;;;;36.30;24.85;;;8.60;98.60;;;;;;5063207;28;20422;-61
2022/11/14 12:30:23;;;;;;;36.90;23.30;;;8.60;98.70;;;;;;5040974;28;20052;-61
2022/11/14 12:32:56;;;;;;;40.42;24.00;;;8.50;98.80;;;;;;5072281;28;20092;-62
2022/11/14 12:35:29;;;;;;;36.13;24.60;;;8.50;99.20;;;;;;5071102;28;20042;-61
2022/11/14 12:37:57;;;;;;;38.20;24.95;;;8.40;99.40;;;;;;5070579;28;20632;-62
2022/11/14 12:40:31;;;;;;;40.17;25.52;;;8.30;99.70;;;;;;5067154;28;20028;-61
2022/11/14 12:42:57;;;;;;;43.47;27.48;;;8.30;99.80;;;;;;5067040;28;20531;-61
2022/11/14 12:45:35;;;;;;;36.40;24.30;;;8.30;99.90;;;;;;5068099;28;20045;-61
2022/11/14 12:48:39;;;;;;;43.03;27.00;;;8.30;99.90;;;;;;5067312;28;20067;-61